createdAt,value
2019-05-06T00:01:40.619Z,98830.84
2019-05-06T00:04:10.892Z,98830.84
2019-05-06T00:06:41.169Z,98824.11
2019-05-06T00:09:11.979Z,98832.79
2019-05-06T00:11:42.224Z,98828.09
2019-05-06T00:14:14.145Z,98833.53
2019-05-06T00:16:44.454Z,98832.50
2019-05-06T00:19:14.771Z,98831.95
2019-05-06T00:21:44.992Z,98837.74
2019-05-06T00:24:15.320Z,98841.70
2019-05-06T00:27:04.942Z,98840.38
2019-05-06T00:29:35.254Z,98843.95
2019-05-06T00:32:05.902Z,98836.81
2019-05-06T00:34:37.548Z,98849.17
2019-05-06T00:37:07.796Z,98854.83
2019-05-06T00:39:45.412Z,98860.52
2019-05-06T00:42:40.288Z,98860.09
2019-05-06T00:45:11.100Z,98860.09
2019-05-06T00:47:41.358Z,98859.55
2019-05-06T00:50:14.224Z,98860.13
2019-05-06T00:52:44.705Z,98867.52
2019-05-06T00:55:15.144Z,98869.39
2019-05-06T00:57:45.835Z,98870.79
2019-05-06T01:00:18.929Z,98869.98
2019-05-06T01:02:49.240Z,98878.39
2019-05-06T01:05:19.818Z,98876.73
2019-05-06T01:07:50.373Z,98876.90
2019-05-06T01:10:20.784Z,98874.95
2019-05-06T01:13:04.202Z,98873.29
2019-05-06T01:15:35.656Z,98875.49
2019-05-06T01:18:06.352Z,98879.24
2019-05-06T01:20:36.977Z,98871.34
2019-05-06T01:23:07.205Z,98870.56
2019-05-06T01:25:37.804Z,98876.00
2019-05-06T01:28:08.049Z,98875.78
2019-05-06T01:30:38.527Z,98877.30
2019-05-06T01:33:08.812Z,98877.30
2019-05-06T01:35:39.091Z,98876.61
2019-05-06T01:38:35.364Z,98877.92
2019-05-06T01:41:24.373Z,98876.15
2019-05-06T01:43:57.492Z,98876.39
2019-05-06T01:46:27.892Z,98872.55
2019-05-06T01:48:58.168Z,98875.92
2019-05-06T01:51:34.588Z,98879.83
2019-05-06T01:54:04.139Z,98881.69
2019-05-06T01:56:40.344Z,98881.34
2019-05-06T01:59:18.603Z,98884.32
2019-05-06T02:01:58.112Z,98887.03
2019-05-06T02:04:20.788Z,98885.37
2019-05-06T02:06:51.097Z,98889.78
2019-05-06T02:09:21.344Z,98893.45
2019-05-06T02:11:53.511Z,98898.22
2019-05-06T02:14:24.623Z,98898.22
2019-05-06T02:19:37.000Z,98895.04
2019-05-06T02:22:13.623Z,98902.81
2019-05-06T02:24:53.773Z,98901.77
2019-05-06T02:27:24.744Z,98904.70
2019-05-06T02:30:05.665Z,98907.34
2019-05-06T02:32:55.696Z,98912.22
2019-05-06T02:35:34.974Z,98908.47
2019-05-06T02:38:07.072Z,98914.23
2019-05-06T02:40:37.333Z,98910.98
2019-05-06T02:43:07.616Z,98916.55
2019-05-06T02:45:37.902Z,98910.98
2019-05-06T02:48:14.293Z,98917.88
2019-05-06T02:51:15.526Z,98925.14
2019-05-06T02:53:45.842Z,98918.95
2019-05-06T02:56:16.051Z,98920.84
2019-05-06T02:58:46.338Z,98920.38
2019-05-06T03:01:17.514Z,98915.19
2019-05-06T03:03:47.789Z,98910.98
2019-05-06T03:06:18.067Z,98922.48
2019-05-06T03:08:48.341Z,98921.01
2019-05-06T03:11:18.617Z,98920.45
2019-05-06T03:13:48.884Z,98927.73
2019-05-06T03:16:19.062Z,98925.21
2019-05-06T03:18:49.273Z,98921.65
2019-05-06T03:21:50.688Z,98922.58
2019-05-06T03:24:48.745Z,98921.48
2019-05-06T03:27:18.952Z,98919.63
2019-05-06T03:29:49.176Z,98923.57
2019-05-06T03:32:24.753Z,98929.22
2019-05-06T03:35:15.935Z,98926.36
2019-05-06T03:37:24.353Z,98930.36
2019-05-06T03:39:55.600Z,98928.53
2019-05-06T03:42:26.240Z,98930.48
2019-05-06T03:45:03.953Z,98925.52
2019-05-06T03:47:44.899Z,98934.65
2019-05-06T03:50:15.133Z,98930.36
2019-05-06T03:52:45.773Z,98928.23
2019-05-06T03:55:15.997Z,98936.20
2019-05-06T03:57:47.676Z,98935.86
2019-05-06T04:00:18.634Z,98938.49
2019-05-06T04:02:48.903Z,98932.30
2019-05-06T04:05:19.115Z,98932.02
2019-05-06T04:07:52.762Z,98928.51
2019-05-06T04:10:22.880Z,98930.28
2019-05-06T04:12:54.382Z,98938.06
2019-05-06T04:15:27.381Z,98941.74
2019-05-06T04:18:03.642Z,98945.97
2019-05-06T04:20:46.865Z,98954.05
2019-05-06T04:23:43.707Z,98954.63
2019-05-06T04:26:23.960Z,98957.44
2019-05-06T04:28:55.351Z,98961.19
2019-05-06T04:31:26.570Z,98965.75
2019-05-06T04:34:12.363Z,98964.22
2019-05-06T04:36:29.702Z,98965.77
2019-05-06T04:39:04.255Z,98961.98
2019-05-06T04:41:34.550Z,98963.95
2019-05-06T04:44:05.306Z,98973.35
2019-05-06T04:46:35.682Z,98969.95
2019-05-06T04:49:10.343Z,98978.33
2019-05-06T04:51:37.868Z,98973.90
2019-05-06T04:54:08.102Z,98979.20
2019-05-06T04:56:38.314Z,98973.50
2019-05-06T04:59:08.728Z,98967.49
2019-05-06T05:01:39.167Z,98966.74
2019-05-06T05:04:24.430Z,98970.82
2019-05-06T05:06:43.216Z,98970.59
2019-05-06T05:09:17.066Z,98969.95
2019-05-06T05:11:53.496Z,98977.79
2019-05-06T05:14:48.875Z,98971.14
2019-05-06T05:17:56.862Z,98973.17
2019-05-06T05:20:36.993Z,98975.61
2019-05-06T05:22:58.998Z,98983.51
2019-05-06T05:25:29.456Z,98985.72
2019-05-06T05:28:02.050Z,98986.34
2019-05-06T05:30:32.813Z,98986.95
2019-05-06T05:33:03.924Z,98985.03
2019-05-06T05:35:34.212Z,98995.80
2019-05-06T05:38:04.682Z,98989.73
2019-05-06T05:40:35.349Z,98997.09
2019-05-06T05:43:32.859Z,98995.31
2019-05-06T05:46:03.798Z,98987.31
2019-05-06T05:48:59.725Z,98995.35
2019-05-06T05:51:32.016Z,98992.33
2019-05-06T05:54:02.387Z,98990.94
2019-05-06T05:56:33.101Z,98993.36
2019-05-06T05:59:03.648Z,98988.69
2019-05-06T06:01:35.452Z,98988.14
2019-05-06T19:24:25.526Z,98962.13
2019-05-06T19:27:02.175Z,98966.41
2019-05-06T19:29:33.373Z,98965.88
2019-05-06T19:32:03.693Z,98972.19
2019-05-06T19:34:35.330Z,98974.19
2019-05-06T19:37:05.599Z,98976.50
2019-05-06T19:39:35.887Z,98969.83
2019-05-06T19:42:07.041Z,98973.56
2019-05-06T19:44:37.313Z,98972.32
2019-05-06T19:47:07.609Z,98981.66
2019-05-06T19:49:37.902Z,98982.19
2019-05-06T19:52:08.464Z,98980.31
2019-05-06T19:54:38.742Z,98987.20
2019-05-06T19:57:09.014Z,98986.08
2019-05-06T19:59:39.548Z,98980.95
2019-05-06T20:02:09.854Z,98980.56
2019-05-06T20:04:44.013Z,98978.91
2019-05-06T20:07:35.533Z,98984.81
2019-05-06T20:10:26.013Z,98984.81
2019-05-06T20:13:02.617Z,98976.45
2019-05-06T20:15:34.858Z,98980.45
2019-05-06T20:18:06.296Z,98979.48
2019-05-06T20:20:36.697Z,98977.70
2019-05-06T20:23:07.264Z,98976.73
2019-05-06T20:25:37.532Z,98973.78
2019-05-06T20:28:07.788Z,98980.94
2019-05-06T20:30:37.997Z,98972.15
2019-05-06T20:33:08.635Z,98971.21
2019-05-06T20:35:39.218Z,98973.06
2019-05-06T20:38:12.151Z,98967.97
2019-05-06T20:40:43.083Z,98958.13
2019-05-06T20:43:20.459Z,98954.18
2019-05-06T20:45:47.272Z,98955.19
2019-05-06T20:48:17.927Z,98963.33
2019-05-06T20:50:48.536Z,98955.84
2019-05-06T20:53:18.869Z,98954.43
2019-05-06T20:55:49.058Z,98948.84
2019-05-06T20:58:19.333Z,98954.56
2019-05-06T21:00:49.578Z,98952.27
2019-05-06T21:03:21.956Z,98954.00
2019-05-06T21:05:52.393Z,98948.32
2019-05-06T21:08:22.654Z,98948.32
2019-05-06T21:10:53.082Z,98953.07
2019-05-06T21:13:31.924Z,98950.03
2019-05-06T21:15:56.601Z,98949.55
2019-05-06T21:18:26.791Z,98946.51
2019-05-06T21:20:57.059Z,98945.55
2019-05-06T21:23:27.325Z,98946.22
2019-05-06T21:25:57.546Z,98947.54
2019-05-06T21:28:27.901Z,98947.23
2019-05-06T21:30:58.447Z,98939.93
2019-05-06T21:33:28.701Z,98941.53
2019-05-06T21:35:58.996Z,98938.85
2019-05-06T21:38:29.622Z,98942.16
2019-05-06T21:41:01.869Z,98939.51
2019-05-06T21:43:43.722Z,98942.91
2019-05-06T21:46:03.864Z,98951.33
2019-05-06T21:48:34.161Z,98945.27
2019-05-06T21:51:04.446Z,98943.84
2019-05-06T21:53:34.764Z,98945.13
2019-05-06T21:56:05.035Z,98947.80
2019-05-06T21:58:35.234Z,98942.89
2019-05-06T22:01:07.688Z,98944.25
2019-05-06T22:03:39.114Z,98946.23
2019-05-06T22:06:09.453Z,98945.23
2019-05-06T22:08:39.730Z,98941.23
2019-05-06T22:11:10.070Z,98937.98
2019-05-06T22:13:42.389Z,98941.31
2019-05-06T22:16:12.651Z,98946.32
2019-05-06T22:18:45.465Z,98945.89
2019-05-06T22:21:23.678Z,98943.97
2019-05-06T22:24:12.125Z,98942.66
2019-05-06T22:26:43.120Z,98946.86
2019-05-06T22:29:13.611Z,98941.75
2019-05-06T22:31:43.869Z,98935.70
2019-05-06T22:34:15.810Z,98941.13
2019-05-06T22:36:47.753Z,98939.09
2019-05-06T22:39:18.094Z,98937.25
2019-05-06T22:41:48.389Z,98938.99
2019-05-06T22:44:19.027Z,98942.83
2019-05-06T22:46:49.269Z,98936.06
2019-05-06T22:49:19.546Z,98929.00
2019-05-06T22:51:52.195Z,98934.59
2019-05-06T22:54:24.539Z,98934.14
2019-05-06T22:56:54.985Z,98930.09
2019-05-06T22:59:25.318Z,98935.39
2019-05-06T23:02:06.149Z,98937.36
2019-05-06T23:04:37.043Z,98939.07
2019-05-06T23:07:07.274Z,98934.70
2019-05-06T23:09:37.452Z,98939.78
2019-05-06T23:12:08.084Z,98942.12
2019-05-06T23:14:38.599Z,98936.73
2019-05-06T23:17:08.986Z,98940.45
2019-05-06T23:19:39.190Z,98939.45
2019-05-06T23:22:11.985Z,98936.80
2019-05-06T23:24:41.802Z,98939.05
2019-05-06T23:27:12.654Z,98943.70
2019-05-06T23:29:45.057Z,98942.54
2019-05-06T23:32:15.322Z,98952.23
2019-05-06T23:34:45.600Z,98952.23
2019-05-06T23:37:23.634Z,98952.07
2019-05-06T23:40:42.830Z,98949.20
2019-05-06T23:43:49.187Z,98948.69
2019-05-06T23:46:55.514Z,98951.52
2019-05-06T23:50:03.406Z,98948.01
2019-05-06T23:53:12.323Z,98940.19
2019-05-06T23:56:19.715Z,98933.19
2019-05-06T23:58:52.251Z,98936.88
